createdAt,value
2022-09-04T00:01:14.206Z,12.93
2022-09-04T00:03:51.355Z,12.83
2022-09-04T00:06:25.412Z,12.20
2022-09-04T00:09:12.767Z,11.70
2022-09-04T00:11:47.889Z,11.90
2022-09-04T00:14:18.748Z,12.00
2022-09-04T00:16:52.588Z,12.00
2022-09-04T00:19:30.204Z,12.40
2022-09-04T00:22:01.069Z,11.73
2022-09-04T00:24:33.448Z,12.03
2022-09-04T00:27:08.530Z,13.80
2022-09-04T00:29:48.963Z,11.53
2022-09-04T00:32:23.586Z,10.47
2022-09-04T00:35:07.090Z,11.60
2022-09-04T00:37:40.493Z,11.20
2022-09-04T00:40:17.807Z,12.80
2022-09-04T00:43:11.703Z,12.83
2022-09-04T00:45:59.237Z,11.50
2022-09-04T00:49:13.540Z,11.93
2022-09-04T00:51:53.649Z,11.40
2022-09-04T00:54:42.229Z,12.37
2022-09-04T00:57:38.881Z,10.27
2022-09-04T01:00:13.263Z,9.40
2022-09-04T01:03:01.528Z,9.90
2022-09-04T01:05:40.929Z,9.93
2022-09-04T01:08:24.073Z,11.40
2022-09-04T01:11:05.437Z,12.00
2022-09-04T01:13:42.170Z,10.40
2022-09-04T01:16:16.705Z,12.00
2022-09-04T01:18:50.893Z,12.77
2022-09-04T01:21:35.434Z,11.97
2022-09-04T01:24:28.373Z,12.07
2022-09-04T01:27:02.403Z,11.67
2022-09-04T01:29:41.199Z,13.07
2022-09-04T01:32:20.469Z,13.27
2022-09-04T01:34:59.505Z,13.60
2022-09-04T01:37:41.681Z,13.17
2022-09-04T01:40:42.444Z,12.77
2022-09-04T01:43:14.161Z,13.33
2022-09-04T01:46:08.652Z,12.07
2022-09-04T01:48:45.401Z,10.57
2022-09-04T01:51:25.804Z,11.63
2022-09-04T01:54:07.998Z,11.17
2022-09-04T01:56:42.901Z,12.17
2022-09-04T01:59:23.540Z,13.40
2022-09-04T02:01:58.332Z,12.90
2022-09-04T02:04:32.408Z,13.00
2022-09-04T02:07:11.918Z,12.17
2022-09-04T02:09:54.624Z,14.67
2022-09-04T02:12:35.895Z,13.73
2022-09-04T02:15:13.420Z,14.87
2022-09-04T02:17:46.207Z,15.70
2022-09-04T02:20:25.076Z,16.27
2022-09-04T02:23:05.100Z,16.60
2022-09-04T02:25:40.168Z,14.57
2022-09-04T02:28:24.037Z,14.20
2022-09-04T02:31:01.767Z,15.50
2022-09-04T02:33:39.642Z,15.00
2022-09-04T02:36:14.610Z,14.40
2022-09-04T02:38:52.508Z,14.60
2022-09-04T02:41:28.355Z,14.07
2022-09-04T02:44:09.829Z,16.10
2022-09-04T02:46:52.085Z,13.17
2022-09-04T02:49:29.645Z,13.17
2022-09-04T02:52:10.415Z,12.83
2022-09-04T02:55:02.810Z,13.87
2022-09-04T02:57:42.977Z,13.97
2022-09-04T03:00:15.390Z,15.57
2022-09-04T03:02:56.018Z,13.93
2022-09-04T03:05:26.519Z,16.83
2022-09-04T03:08:01.233Z,17.90
2022-09-04T03:10:32.849Z,16.30
2022-09-04T03:13:06.631Z,18.03
2022-09-04T03:15:42.286Z,18.50
2022-09-04T03:18:21.065Z,19.40
2022-09-04T03:20:54.916Z,19.63
2022-09-04T03:23:31.333Z,23.80
2022-09-04T03:26:24.363Z,23.20
2022-09-04T03:29:13.320Z,20.43
2022-09-04T03:31:49.791Z,19.80
2022-09-04T03:34:31.795Z,20.20
2022-09-04T03:37:14.201Z,21.83
2022-09-04T03:39:53.089Z,23.73
2022-09-04T03:42:32.895Z,21.87
2022-09-04T03:45:15.938Z,24.17
2022-09-04T03:47:54.837Z,22.27
2022-09-04T03:50:32.096Z,21.77
2022-09-04T03:53:10.486Z,21.50
2022-09-04T03:55:58.061Z,21.40
2022-09-04T03:58:38.502Z,22.40
2022-09-04T04:01:13.730Z,23.43
2022-09-04T04:03:56.329Z,22.00
2022-09-04T04:06:36.266Z,19.57
2022-09-04T04:09:20.378Z,20.47
2022-09-04T04:12:13.047Z,22.27
2022-09-04T04:14:56.121Z,21.53
2022-09-04T04:17:47.189Z,22.03
2022-09-04T04:20:24.892Z,24.30
2022-09-04T04:23:17.644Z,21.00
2022-09-04T04:26:08.165Z,24.20
2022-09-04T04:29:12.527Z,25.40
2022-09-04T04:32:10.802Z,22.80
2022-09-04T04:34:56.659Z,25.37
2022-09-04T04:37:39.107Z,21.10
2022-09-04T04:40:19.757Z,24.47
2022-09-04T04:42:56.489Z,24.80
2022-09-04T04:45:49.770Z,20.70
2022-09-04T04:48:40.635Z,22.87
2022-09-04T04:51:19.824Z,20.37
2022-09-04T04:53:56.911Z,20.33
2022-09-04T04:56:34.887Z,20.40
2022-09-04T04:59:19.130Z,20.70
2022-09-04T05:01:56.586Z,21.47
2022-09-04T05:04:36.078Z,23.07
2022-09-04T05:07:11.470Z,23.57
2022-09-04T05:09:47.903Z,22.57
2022-09-04T05:12:27.977Z,24.23
2022-09-04T05:15:03.048Z,23.80
2022-09-04T05:17:40.642Z,21.37
2022-09-04T05:20:30.488Z,23.13
2022-09-04T05:23:07.657Z,23.20
2022-09-04T05:25:41.231Z,24.87
2022-09-04T05:28:25.381Z,22.00
2022-09-04T05:31:00.789Z,23.00
2022-09-04T05:33:35.652Z,20.70
2022-09-04T05:36:10.967Z,24.37
2022-09-04T05:38:48.955Z,24.00
2022-09-04T05:41:37.532Z,24.20
2022-09-04T05:44:19.772Z,22.53
2022-09-04T05:46:59.779Z,18.63
2022-09-04T05:49:47.415Z,20.70
2022-09-04T05:52:37.190Z,20.43
2022-09-04T05:55:33.141Z,23.83
2022-09-04T05:58:31.320Z,18.77
2022-09-04T06:01:14.100Z,22.47
2022-09-04T06:04:04.692Z,20.10
2022-09-04T06:06:38.985Z,21.30
2022-09-04T06:09:28.877Z,19.00
2022-09-04T06:12:20.085Z,21.70
2022-09-04T06:15:12.030Z,19.80
2022-09-04T06:17:56.455Z,19.97
2022-09-04T06:20:37.826Z,18.57
2022-09-04T06:23:29.704Z,20.00
2022-09-04T06:26:16.098Z,17.73
2022-09-04T06:29:05.440Z,18.10
2022-09-04T06:32:20.857Z,18.37
2022-09-04T06:35:11.429Z,17.57
2022-09-04T06:37:50.427Z,18.20
2022-09-04T06:40:34.364Z,20.20
2022-09-04T06:43:15.921Z,15.37
2022-09-04T06:45:58.943Z,17.37
2022-09-04T06:48:42.675Z,16.50
2022-09-04T06:51:27.322Z,16.37
2022-09-04T06:54:06.850Z,16.13
2022-09-04T06:56:55.152Z,14.73
2022-09-04T06:59:41.882Z,13.73
2022-09-04T07:02:26.314Z,13.77
2022-09-04T07:05:05.104Z,13.57
2022-09-04T07:07:44.305Z,12.80
2022-09-04T07:10:16.916Z,12.30
2022-09-04T07:13:18.139Z,11.37
2022-09-04T07:16:07.612Z,10.70
2022-09-04T07:18:52.610Z,10.03
2022-09-04T07:21:31.188Z,10.87
2022-09-04T07:24:07.588Z,9.80
2022-09-04T07:26:47.631Z,9.80
2022-09-04T07:29:33.023Z,8.60
2022-09-04T07:32:06.646Z,9.93
2022-09-04T07:34:44.954Z,9.27
2022-09-04T07:37:25.017Z,10.20
2022-09-04T07:40:08.182Z,10.10
2022-09-04T07:42:43.350Z,9.50
2022-09-04T07:45:22.696Z,9.67
2022-09-04T07:47:59.192Z,9.57
2022-09-04T07:50:32.222Z,9.57
2022-09-04T07:53:17.201Z,10.20
2022-09-04T07:55:47.955Z,10.77
2022-09-04T07:58:39.195Z,9.83
2022-09-04T08:01:31.053Z,10.20
2022-09-04T08:04:20.538Z,8.60
2022-09-04T08:06:56.309Z,9.33
2022-09-04T08:09:49.797Z,10.47
2022-09-04T08:12:31.715Z,10.00
2022-09-04T08:15:14.238Z,9.43
2022-09-04T08:17:58.093Z,9.10
2022-09-04T08:20:43.149Z,9.87
2022-09-04T08:23:27.261Z,8.93
2022-09-04T08:26:07.902Z,9.57
2022-09-04T08:28:57.030Z,9.73
2022-09-04T08:31:32.357Z,9.20
2022-09-04T08:34:28.454Z,8.70
2022-09-04T08:37:10.086Z,10.50
2022-09-04T08:39:47.396Z,7.80
2022-09-04T08:42:54.438Z,8.20
2022-09-04T08:45:44.905Z,8.03
2022-09-04T08:48:54.585Z,8.50
2022-09-04T08:52:01.931Z,7.87
2022-09-04T08:55:02.165Z,7.10
2022-09-04T08:57:56.921Z,7.93
2022-09-04T09:00:34.907Z,7.10
2022-09-04T09:03:40.795Z,5.67
2022-09-04T09:06:32.889Z,5.20
2022-09-04T09:09:44.684Z,6.20
2022-09-04T09:12:49.480Z,5.73
2022-09-04T09:15:44.071Z,5.70
2022-09-04T09:18:36.058Z,6.20
2022-09-04T09:21:08.767Z,5.17
2022-09-04T09:24:02.455Z,5.60
2022-09-04T09:26:34.602Z,4.97
2022-09-04T09:29:45.091Z,4.57
2022-09-04T09:32:54.974Z,4.43
2022-09-04T09:36:04.692Z,4.30
2022-09-04T09:39:02.446Z,3.97
2022-09-04T09:41:48.059Z,4.30
2022-09-04T09:44:46.919Z,3.87
2022-09-04T09:47:49.877Z,4.80
2022-09-04T09:51:02.480Z,4.33
2022-09-04T09:54:14.272Z,5.13
2022-09-04T09:57:18.922Z,5.23
2022-09-04T10:00:12.345Z,5.07
2022-09-04T10:03:24.421Z,4.70
2022-09-04T10:06:33.067Z,4.63
2022-09-04T10:09:31.683Z,4.40
2022-09-04T10:12:32.288Z,4.30
2022-09-04T10:15:29.864Z,3.83
2022-09-04T10:18:26.139Z,4.17
2022-09-04T10:21:13.945Z,3.90
2022-09-04T10:24:10.277Z,3.03
2022-09-04T10:27:21.849Z,2.90
2022-09-04T10:30:08.263Z,3.37
2022-09-04T10:33:09.220Z,2.67
2022-09-04T10:35:55.314Z,3.50
2022-09-04T10:38:34.886Z,2.83
2022-09-04T10:41:33.697Z,2.63
2022-09-04T10:44:31.514Z,2.57
2022-09-04T10:47:10.594Z,2.53
2022-09-04T10:50:01.413Z,2.80
2022-09-04T10:53:09.017Z,2.80
2022-09-04T10:55:59.251Z,2.30
2022-09-04T10:58:41.024Z,2.20
2022-09-04T11:01:42.916Z,2.83
2022-09-04T11:04:30.005Z,2.97
2022-09-04T11:07:28.604Z,1.93
2022-09-04T11:10:32.761Z,2.67
2022-09-04T11:13:44.639Z,2.80
2022-09-04T11:16:38.561Z,2.40
2022-09-04T11:19:35.286Z,2.60
2022-09-04T11:22:45.676Z,1.73
2022-09-04T11:25:37.508Z,2.60
2022-09-04T11:28:44.215Z,2.53
2022-09-04T11:31:31.446Z,1.93
2022-09-04T11:34:35.818Z,1.90
2022-09-04T11:37:29.988Z,3.10
2022-09-04T11:40:41.381Z,2.80
2022-09-04T11:43:26.101Z,2.43
2022-09-04T11:46:15.494Z,2.13
2022-09-04T11:49:13.699Z,1.70
2022-09-04T11:52:03.932Z,1.90
2022-09-04T11:55:00.034Z,2.10
2022-09-04T11:57:38.126Z,1.70
2022-09-04T12:00:13.461Z,1.87
2022-09-04T12:03:32.217Z,1.73
2022-09-04T12:06:20.910Z,1.77
2022-09-04T12:09:04.969Z,1.97
2022-09-04T12:12:11.371Z,2.07
2022-09-04T12:15:09.604Z,1.40
2022-09-04T12:18:33.728Z,1.33
2022-09-04T12:21:51.407Z,1.77
2022-09-04T12:25:16.518Z,1.30
2022-09-04T12:28:28.990Z,1.30
2022-09-04T12:31:18.342Z,1.47
2022-09-04T12:34:05.891Z,1.90
2022-09-04T12:37:12.421Z,1.80
2022-09-04T12:40:22.360Z,1.40
2022-09-04T12:42:58.227Z,1.40
2022-09-04T12:45:35.251Z,2.10
2022-09-04T12:48:12.654Z,1.70
2022-09-04T12:50:49.768Z,1.87
2022-09-04T12:53:49.276Z,2.00
2022-09-04T12:56:31.378Z,2.20
2022-09-04T12:59:17.948Z,2.20
2022-09-04T13:01:57.002Z,4.77
2022-09-04T13:04:34.477Z,3.90
2022-09-04T13:07:19.030Z,5.80
2022-09-04T13:09:59.399Z,5.60
2022-09-04T13:12:40.497Z,1.70
2022-09-04T13:15:28.998Z,1.83
2022-09-04T13:18:14.232Z,2.50
2022-09-04T13:20:51.390Z,2.97
2022-09-04T13:23:42.805Z,3.80
2022-09-04T13:26:33.913Z,2.60
2022-09-04T13:29:16.697Z,3.20
2022-09-04T13:32:23.239Z,1.33
2022-09-04T13:35:17.252Z,2.43
2022-09-04T13:38:02.892Z,1.87
2022-09-04T13:40:55.894Z,1.73
2022-09-04T13:43:41.462Z,1.70
2022-09-04T13:46:13.430Z,1.63
2022-09-04T13:48:46.554Z,2.10
2022-09-04T13:51:19.335Z,2.43
2022-09-04T13:54:04.365Z,1.83
2022-09-04T13:56:39.222Z,1.83
2022-09-04T13:59:11.626Z,2.57
2022-09-04T14:01:45.927Z,1.70
2022-09-04T14:04:18.262Z,2.20
2022-09-04T14:06:46.242Z,1.93
2022-09-04T14:09:16.746Z,1.47
2022-09-04T14:12:29.461Z,1.57
2022-09-04T14:15:41.903Z,1.73
2022-09-04T14:18:22.861Z,1.30
2022-09-04T14:21:00.955Z,1.40
2022-09-04T14:23:39.274Z,1.83
2022-09-04T14:26:17.351Z,1.63
2022-09-04T14:28:52.319Z,1.57
2022-09-04T14:31:34.065Z,1.77
2022-09-04T14:34:29.185Z,2.30
2022-09-04T14:37:08.455Z,1.80
2022-09-04T14:39:44.368Z,1.40
2022-09-04T14:42:33.914Z,1.77
2022-09-04T14:45:16.645Z,1.67
2022-09-04T14:47:54.722Z,2.07
2022-09-04T14:50:29.729Z,1.50
2022-09-04T14:53:01.841Z,1.60
2022-09-04T14:55:32.766Z,1.30
2022-09-04T14:58:10.123Z,1.60
2022-09-04T15:00:58.718Z,1.57
2022-09-04T15:03:31.742Z,1.63
2022-09-04T15:06:06.043Z,1.70
2022-09-04T15:08:40.136Z,1.97
2022-09-04T15:11:10.991Z,1.83
2022-09-04T15:13:48.839Z,1.70
2022-09-04T15:16:30.934Z,1.50
2022-09-04T15:19:08.513Z,1.50
2022-09-04T15:21:46.439Z,1.50
2022-09-04T15:24:26.211Z,1.33
2022-09-04T15:27:00.344Z,1.70
2022-09-04T15:29:35.888Z,1.57
2022-09-04T15:32:13.670Z,1.67
2022-09-04T15:34:42.028Z,1.80
2022-09-04T15:37:13.094Z,1.63
2022-09-04T15:39:51.818Z,1.80
2022-09-04T15:42:36.105Z,1.50
2022-09-04T15:45:11.172Z,1.40
2022-09-04T15:47:57.162Z,1.50
2022-09-04T15:50:29.348Z,1.50
2022-09-04T15:53:10.383Z,1.47
2022-09-04T15:55:41.070Z,1.33
2022-09-04T15:58:17.151Z,3.43
2022-09-04T16:01:08.170Z,2.30
2022-09-04T16:03:47.623Z,2.10
2022-09-04T16:06:21.644Z,2.00
2022-09-04T16:08:54.477Z,2.80
2022-09-04T16:11:27.642Z,2.23
2022-09-04T16:14:00.287Z,1.50
2022-09-04T16:16:35.150Z,1.37
2022-09-04T16:19:16.085Z,1.60
2022-09-04T16:21:50.982Z,1.60
2022-09-04T16:24:22.759Z,1.50
2022-09-04T16:26:53.952Z,1.97
2022-09-04T16:29:36.888Z,1.40
2022-09-04T16:32:09.978Z,1.50
2022-09-04T16:34:47.388Z,2.00
2022-09-04T16:37:20.508Z,1.73
2022-09-04T16:40:00.642Z,1.50
2022-09-04T16:42:38.531Z,1.60
2022-09-04T16:45:13.599Z,1.70
2022-09-04T16:47:47.017Z,1.67
2022-09-04T16:50:27.801Z,3.50
2022-09-04T16:53:13.889Z,3.00
2022-09-04T16:55:49.585Z,2.57
2022-09-04T16:58:35.395Z,4.40
2022-09-04T17:01:14.779Z,3.07
2022-09-04T17:03:54.086Z,2.57
2022-09-04T17:06:56.331Z,1.93
2022-09-04T17:09:32.419Z,1.43
2022-09-04T17:12:17.848Z,1.77
2022-09-04T17:14:52.136Z,1.83
2022-09-04T17:17:31.209Z,1.60
2022-09-04T17:20:03.800Z,2.00
2022-09-04T17:28:54.109Z,1.80
2022-09-04T17:29:16.012Z,2.10
2022-09-04T17:29:22.314Z,1.70
2022-09-04T17:31:33.271Z,1.50
2022-09-04T17:40:32.386Z,1.70
2022-09-04T17:40:48.031Z,1.77
2022-09-04T17:40:56.104Z,2.17
2022-09-04T17:43:22.701Z,2.27
2022-09-04T17:45:53.573Z,2.07
2022-09-04T17:48:24.602Z,1.80
2022-09-04T17:50:55.085Z,2.37
2022-09-04T17:53:34.052Z,1.80
2022-09-04T17:56:13.616Z,2.20
2022-09-04T17:58:47.714Z,2.03
2022-09-04T18:01:23.307Z,2.27
2022-09-04T18:04:20.662Z,2.40
2022-09-04T18:06:56.277Z,2.23
2022-09-04T18:09:33.015Z,3.67
2022-09-04T18:12:12.341Z,5.93
2022-09-04T18:14:56.219Z,3.17
2022-09-04T18:17:45.829Z,8.53
2022-09-04T18:20:24.754Z,4.90
2022-09-04T18:23:09.004Z,5.10
2022-09-04T18:25:45.241Z,5.87
2022-09-04T18:28:19.944Z,4.07
2022-09-04T18:37:10.234Z,3.03
2022-09-04T18:37:17.020Z,3.10
2022-09-04T18:37:25.854Z,2.80
2022-09-04T18:39:41.933Z,3.57
2022-09-04T18:48:21.757Z,3.37
2022-09-04T18:50:34.629Z,3.70
2022-09-04T18:50:45.117Z,3.00
2022-09-04T18:51:19.427Z,3.10
2022-09-04T18:53:53.986Z,3.33
2022-09-04T18:56:27.102Z,3.53
2022-09-04T18:59:00.701Z,3.63
2022-09-04T19:01:39.811Z,3.80
2022-09-04T19:04:51.644Z,3.40
2022-09-04T19:07:34.777Z,3.67
2022-09-04T19:10:12.418Z,3.37
2022-09-04T19:12:48.678Z,3.23
2022-09-04T19:15:37.703Z,3.53
2022-09-04T19:18:15.660Z,3.73
2022-09-04T19:20:50.178Z,3.57
2022-09-04T19:23:27.402Z,3.50
2022-09-04T19:25:57.537Z,4.13
2022-09-04T19:28:40.062Z,3.50
2022-09-04T19:31:20.953Z,3.90
2022-09-04T19:33:57.730Z,3.47
2022-09-04T19:36:34.617Z,4.57
2022-09-04T19:43:24.655Z,4.00
2022-09-04T19:46:16.780Z,3.80
2022-09-04T19:46:24.950Z,4.67
2022-09-04T19:48:06.506Z,4.07
2022-09-04T19:53:19.541Z,3.97
2022-09-04T19:53:42.676Z,4.50
2022-09-04T19:56:27.107Z,4.00
2022-09-04T19:58:59.332Z,3.73
2022-09-04T20:01:33.155Z,3.43
2022-09-04T20:04:05.789Z,4.30
2022-09-04T20:06:39.693Z,3.67
2022-09-04T20:09:16.257Z,3.80
2022-09-04T20:11:47.978Z,5.70
2022-09-04T20:14:25.634Z,3.90
2022-09-04T20:17:07.148Z,4.40
2022-09-04T20:19:41.356Z,4.50
2022-09-04T20:22:25.587Z,4.73
2022-09-04T20:25:02.707Z,4.70
2022-09-04T20:27:36.389Z,4.43
2022-09-04T20:30:11.416Z,4.27
2022-09-04T20:32:46.848Z,4.40
2022-09-04T20:35:32.933Z,4.33
2022-09-04T20:38:12.360Z,4.60
2022-09-04T20:40:45.413Z,4.30
2022-09-04T20:43:26.943Z,5.13
2022-09-04T20:52:25.298Z,4.33
2022-09-04T20:52:59.184Z,4.80
2022-09-04T20:53:05.236Z,4.40
2022-09-04T20:55:04.403Z,4.23
2022-09-04T21:03:07.981Z,4.13
2022-09-04T21:03:13.458Z,4.17
2022-09-04T21:03:39.036Z,4.60
2022-09-04T21:06:22.983Z,4.50
2022-09-04T21:09:01.860Z,3.90
2022-09-04T21:11:40.862Z,4.17
2022-09-04T21:14:15.729Z,4.40
2022-09-04T21:17:34.531Z,4.50
2022-09-04T21:20:31.142Z,5.20
2022-09-04T21:23:40.253Z,5.70
2022-09-04T21:26:23.164Z,4.30
2022-09-04T21:29:16.892Z,5.90
2022-09-04T21:32:01.902Z,4.70
2022-09-04T21:34:49.759Z,5.67
2022-09-04T21:37:24.246Z,5.00
2022-09-04T21:40:49.542Z,4.97
2022-09-04T21:43:49.597Z,5.30
2022-09-04T21:46:36.842Z,5.50
2022-09-04T21:49:26.480Z,5.60
2022-09-04T21:52:20.066Z,5.20
2022-09-04T21:56:33.287Z,4.97
2022-09-04T22:02:38.446Z,5.67
2022-09-04T22:02:45.889Z,5.30
2022-09-04T22:04:19.831Z,5.57
2022-09-04T22:09:44.456Z,5.60
2022-09-04T22:13:34.155Z,5.50
2022-09-04T22:13:40.554Z,6.90
2022-09-04T22:16:01.091Z,5.17
2022-09-04T22:18:56.439Z,6.00
2022-09-04T22:21:46.663Z,5.90
2022-09-04T22:24:55.611Z,5.63
2022-09-04T22:28:08.092Z,6.33
2022-09-04T22:30:50.285Z,6.40
2022-09-04T22:33:48.207Z,6.93
2022-09-04T22:37:00.492Z,6.90
2022-09-04T22:40:04.703Z,6.10
2022-09-04T22:42:48.598Z,6.50
2022-09-04T22:45:51.814Z,6.23
2022-09-04T22:49:12.660Z,5.83
2022-09-04T22:52:21.606Z,5.70
2022-09-04T22:55:09.092Z,6.53
2022-09-04T22:58:03.001Z,6.03
2022-09-04T23:00:42.460Z,7.07
2022-09-04T23:03:35.262Z,6.20
2022-09-04T23:09:42.901Z,6.87
2022-09-04T23:13:43.307Z,7.03
2022-09-04T23:14:03.085Z,6.97
2022-09-04T23:16:18.333Z,6.10
2022-09-04T23:20:40.032Z,7.53
2022-09-04T23:26:35.819Z,7.10
2022-09-04T23:26:48.844Z,6.37
2022-09-04T23:28:27.720Z,6.33
2022-09-04T23:31:16.459Z,6.50
2022-09-04T23:34:24.744Z,5.60
2022-09-04T23:37:33.523Z,5.60
2022-09-04T23:40:27.558Z,6.00
2022-09-04T23:43:28.662Z,6.50
2022-09-04T23:46:18.024Z,5.70
2022-09-04T23:49:06.935Z,6.90
2022-09-04T23:51:45.514Z,8.57
2022-09-04T23:54:49.088Z,9.50
2022-09-04T23:57:27.717Z,9.80
